RYR016 LIRP-LIEA
Flight info
| Callsign | RYR016 |
|---|---|
| Flight time | N/A |
| Altitude | 35000 |
| Route | DOCME M729 ELB DCT ROMPO L5 MINKA |
| Aircraft | B738/M-SDE2E3FGHIRWXY/LB1 |
Departure
| Time | 2026-04-28 18:51 |
|---|---|
| Airport | Pisa International Airport (LIRP) |
Arrival
| Time | N/A |
|---|---|
| Airport | Alghero-Fertilia Airport (LIEA) |
| Time | Latitude | Longitude | Altitude | Speed | Heading |
|---|---|---|---|---|---|
| 2026-04-28 18:47 | 43.69050 | 10.40756 | 14 ft | 0 kts | 220° |
| 2026-04-28 18:48 | 43.69049 | 10.40755 | 16 ft | 1 kts | 220° |
| 2026-04-28 18:48 | 43.69040 | 10.40745 | 12 ft | 3 kts | 220° |
| 2026-04-28 18:48 | 43.69013 | 10.40713 | 11 ft | 6 kts | 221° |
| 2026-04-28 18:48 | 43.69011 | 10.40710 | 11 ft | 0 kts | 221° |
| 2026-04-28 18:49 | 43.69023 | 10.40626 | 11 ft | 15 kts | 307° |
| 2026-04-28 18:49 | 43.69111 | 10.40509 | 11 ft | 19 kts | 330° |
| 2026-04-28 18:50 | 43.69209 | 10.40423 | 10 ft | 15 kts | 313° |
| 2026-04-28 18:50 | 43.69241 | 10.40339 | 9 ft | 9 kts | 265° |
| 2026-04-28 18:50 | 43.69217 | 10.40292 | 9 ft | 0 kts | 214° |
| 2026-04-28 18:50 | 43.69161 | 10.40235 | 9 ft | 44 kts | 218° |
| 2026-04-28 18:51 | 43.68666 | 10.39719 | 11 ft | 131 kts | 216° |
| 2026-04-28 18:51 | 43.67781 | 10.38755 | 301 ft | 178 kts | 220° |
| 2026-04-28 18:51 | 43.66769 | 10.37691 | 1124 ft | 193 kts | 218° |
| 2026-04-28 18:51 | 43.65662 | 10.36535 | 1708 ft | 210 kts | 217° |
| 2026-04-28 18:52 | 43.64408 | 10.35260 | 2052 ft | 236 kts | 216° |
| 2026-04-28 18:52 | 43.63329 | 10.33518 | 2746 ft | 246 kts | 249° |
| 2026-04-28 18:52 | 43.63118 | 10.31164 | 3570 ft | 254 kts | 275° |
| 2026-04-28 18:52 | 43.63706 | 10.28831 | 4319 ft | 265 kts | 301° |
| 2026-04-28 18:53 | 43.64856 | 10.26816 | 5105 ft | 271 kts | 310° |
| 2026-04-28 18:53 | 43.66164 | 10.24926 | 5905 ft | 275 kts | 321° |
| 2026-04-28 18:53 | 43.67907 | 10.23846 | 6674 ft | 279 kts | 353° |
| 2026-04-28 18:53 | 43.69814 | 10.24060 | 7502 ft | 276 kts | 20° |
| 2026-04-28 18:54 | 43.71491 | 10.25323 | 8320 ft | 275 kts | 37° |
| 2026-04-28 18:54 | 43.72526 | 10.26411 | 8799 ft | 280 kts | 43° |
| 2026-04-28 18:54 | 43.73635 | 10.28596 | 9355 ft | 287 kts | 73° |
| 2026-04-28 18:54 | 43.73826 | 10.31331 | 10121 ft | 288 kts | 99° |
| 2026-04-28 18:55 | 43.73353 | 10.34040 | 10797 ft | 293 kts | 108° |
| 2026-04-28 18:55 | 43.72749 | 10.36769 | 11452 ft | 300 kts | 108° |
| 2026-04-28 18:55 | 43.72137 | 10.39559 | 12147 ft | 306 kts | 108° |
| 2026-04-28 18:55 | 43.71514 | 10.42407 | 12875 ft | 311 kts | 110° |
| 2026-04-28 18:56 | 43.70734 | 10.45217 | 13618 ft | 316 kts | 114° |
| 2026-04-28 18:56 | 43.69728 | 10.47936 | 14278 ft | 320 kts | 130° |
| 2026-04-28 18:56 | 43.68015 | 10.49910 | 14805 ft | 326 kts | 156° |
| 2026-04-28 18:56 | 43.65843 | 10.50734 | 15466 ft | 326 kts | 180° |
| 2026-04-28 18:57 | 43.63612 | 10.50364 | 16225 ft | 323 kts | 201° |
| 2026-04-28 18:57 | 43.61619 | 10.48969 | 16985 ft | 322 kts | 216° |
| 2026-04-28 18:57 | 43.59780 | 10.47175 | 17736 ft | 325 kts | 219° |
| 2026-04-28 18:57 | 43.57956 | 10.45301 | 18450 ft | 329 kts | 219° |
| 2026-04-28 18:58 | 43.56100 | 10.43424 | 19105 ft | 332 kts | 219° |
| 2026-04-28 18:58 | 43.54207 | 10.41567 | 19759 ft | 336 kts | 217° |
| 2026-04-28 18:58 | 43.52143 | 10.40008 | 20390 ft | 344 kts | 203° |
| 2026-04-28 18:58 | 43.49786 | 10.39276 | 21033 ft | 352 kts | 188° |
| 2026-04-28 18:59 | 43.47317 | 10.39205 | 21674 ft | 357 kts | 183° |
| 2026-04-28 18:59 | 43.44836 | 10.39234 | 22075 ft | 368 kts | 183° |
| 2026-04-28 18:59 | 43.42214 | 10.39271 | 22241 ft | 385 kts | 182° |
| 2026-04-28 18:59 | 43.39503 | 10.39307 | 22638 ft | 393 kts | 182° |
| 2026-04-28 19:00 | 43.36751 | 10.39337 | 23171 ft | 397 kts | 183° |
| 2026-04-28 19:00 | 43.33986 | 10.39362 | 23845 ft | 396 kts | 182° |
| 2026-04-28 19:00 | 43.31237 | 10.39382 | 24536 ft | 393 kts | 183° |
| 2026-04-28 19:00 | 43.28511 | 10.39398 | 25190 ft | 391 kts | 183° |
| 2026-04-28 19:01 | 43.25790 | 10.39410 | 25776 ft | 391 kts | 183° |
| 2026-04-28 19:01 | 43.23066 | 10.39420 | 26362 ft | 391 kts | 183° |
| 2026-04-28 19:01 | 43.20350 | 10.39430 | 26979 ft | 389 kts | 183° |
| 2026-04-28 19:01 | 43.17645 | 10.39440 | 27613 ft | 388 kts | 183° |
| 2026-04-28 19:02 | 43.14943 | 10.39449 | 28028 ft | 390 kts | 183° |
| 2026-04-28 19:02 | 43.12184 | 10.39456 | 28030 ft | 402 kts | 182° |
| 2026-04-28 19:02 | 43.09350 | 10.39464 | 28051 ft | 413 kts | 182° |
| 2026-04-28 19:02 | 43.06442 | 10.39472 | 28057 ft | 423 kts | 182° |
| 2026-04-28 19:03 | 43.00410 | 10.39493 | 28044 ft | 443 kts | 182° |
| 2026-04-28 19:03 | 42.97319 | 10.39506 | 27721 ft | 444 kts | 182° |
| 2026-04-28 19:03 | 42.94196 | 10.39519 | 27210 ft | 456 kts | 182° |
| 2026-04-28 19:04 | 42.90988 | 10.39530 | 27111 ft | 466 kts | 182° |
| 2026-04-28 19:04 | 42.87715 | 10.39542 | 27054 ft | 474 kts | 182° |
| 2026-04-28 19:04 | 42.84397 | 10.39556 | 27050 ft | 480 kts | 182° |
| 2026-04-28 19:04 | 42.81058 | 10.39414 | 27028 ft | 479 kts | 189° |
| 2026-04-28 19:05 | 42.77814 | 10.38535 | 27040 ft | 473 kts | 198° |
| 2026-04-28 19:05 | 42.74656 | 10.37309 | 27024 ft | 472 kts | 198° |
| 2026-04-28 19:05 | 42.71499 | 10.36061 | 27025 ft | 472 kts | 198° |
| 2026-04-28 19:05 | 42.68348 | 10.34824 | 27030 ft | 472 kts | 198° |
| 2026-04-28 19:06 | 42.65187 | 10.33603 | 27031 ft | 472 kts | 198° |
| 2026-04-28 19:06 | 42.63092 | 10.32805 | 27032 ft | 472 kts | 198° |
| 2026-04-28 19:06 | 42.58864 | 10.31213 | 27034 ft | 472 kts | 198° |
| 2026-04-28 19:06 | 42.55698 | 10.30033 | 27034 ft | 472 kts | 198° |
| 2026-04-28 19:07 | 42.52536 | 10.28859 | 27028 ft | 472 kts | 197° |
| 2026-04-28 19:07 | 42.49360 | 10.27682 | 27042 ft | 475 kts | 197° |
| 2026-04-28 19:07 | 42.46157 | 10.26496 | 27045 ft | 479 kts | 197° |
| 2026-04-28 19:07 | 42.42934 | 10.25303 | 27038 ft | 480 kts | 197° |
| 2026-04-28 19:08 | 42.39713 | 10.24112 | 27030 ft | 480 kts | 197° |
| 2026-04-28 19:08 | 42.36492 | 10.22923 | 27032 ft | 479 kts | 197° |
| 2026-04-28 19:08 | 42.33320 | 10.21752 | 27034 ft | 479 kts | 197° |
| 2026-04-28 19:08 | 42.30104 | 10.20566 | 27035 ft | 479 kts | 197° |
| 2026-04-28 19:09 | 42.26891 | 10.19382 | 27038 ft | 478 kts | 197° |
| 2026-04-28 19:09 | 42.23676 | 10.18199 | 27034 ft | 478 kts | 197° |
| 2026-04-28 19:09 | 42.20468 | 10.17019 | 27034 ft | 478 kts | 197° |
| 2026-04-28 19:09 | 42.17262 | 10.15841 | 27035 ft | 478 kts | 197° |